createdAt,value
2023-03-16T00:01:12.734Z,4.70
2023-03-16T00:04:01.555Z,4.50
2023-03-16T00:06:50.613Z,5.10
2023-03-16T00:09:41.428Z,7.70
2023-03-16T00:12:34.936Z,4.70
2023-03-16T00:15:23.116Z,4.90
2023-03-16T00:18:13.292Z,4.90
2023-03-16T00:21:03.815Z,5.00
2023-03-16T00:23:53.657Z,5.30
2023-03-16T00:26:42.497Z,5.40
2023-03-16T00:29:30.373Z,5.50
2023-03-16T00:32:18.904Z,5.00
2023-03-16T00:35:09.387Z,5.40
2023-03-16T00:37:57.721Z,4.60
2023-03-16T00:40:51.624Z,5.20
2023-03-16T00:43:42.050Z,5.10
2023-03-16T00:46:29.986Z,5.40
2023-03-16T00:49:17.683Z,5.30
2023-03-16T00:52:08.282Z,5.10
2023-03-16T00:54:57.471Z,5.00
2023-03-16T00:57:46.329Z,5.70
2023-03-16T01:00:34.176Z,5.30
2023-03-16T01:03:23.784Z,5.40
2023-03-16T01:06:12.357Z,7.60
2023-03-16T01:09:02.664Z,5.40
2023-03-16T01:11:54.087Z,5.70
2023-03-16T01:14:43.215Z,5.20
2023-03-16T01:17:35.124Z,5.10
2023-03-16T01:20:22.957Z,5.00
2023-03-16T01:23:10.631Z,5.30
2023-03-16T01:25:58.969Z,5.30
2023-03-16T01:28:52.820Z,5.10
2023-03-16T01:31:41.922Z,5.20
2023-03-16T01:34:33.594Z,5.70
2023-03-16T01:37:22.331Z,5.70
2023-03-16T01:40:22.300Z,5.70
2023-03-16T01:43:13.041Z,5.50
2023-03-16T01:46:23.484Z,5.50
2023-03-16T01:49:16.512Z,5.60
2023-03-16T01:52:06.031Z,5.70
2023-03-16T01:54:56.217Z,4.00
2023-03-16T01:57:49.564Z,5.40
2023-03-16T02:00:37.510Z,5.60
2023-03-16T02:03:34.771Z,5.70
2023-03-16T02:06:34.180Z,5.70
2023-03-16T02:09:28.205Z,5.70
2023-03-16T02:12:18.600Z,6.00
2023-03-16T02:15:11.588Z,6.20
2023-03-16T02:18:00.924Z,5.80
2023-03-16T02:20:50.522Z,6.20
2023-03-16T02:23:40.033Z,6.10
2023-03-16T02:26:31.471Z,6.00
2023-03-16T02:29:28.219Z,5.90
2023-03-16T02:32:18.883Z,8.60
2023-03-16T02:35:10.628Z,5.90
2023-03-16T02:37:59.806Z,5.80
2023-03-16T02:40:58.571Z,5.50
2023-03-16T02:43:49.195Z,7.30
2023-03-16T02:46:51.986Z,8.00
2023-03-16T02:49:52.795Z,5.70
2023-03-16T02:52:41.911Z,5.30
2023-03-16T02:55:33.660Z,5.30
2023-03-16T02:58:21.545Z,3.90
2023-03-16T03:01:09.462Z,5.30
2023-03-16T03:03:57.403Z,5.40
2023-03-16T03:06:47.532Z,5.20
2023-03-16T03:09:35.740Z,6.50
2023-03-16T03:12:25.515Z,5.70
2023-03-16T03:15:13.255Z,5.50
2023-03-16T03:18:09.534Z,5.40
2023-03-16T03:20:57.610Z,5.10
2023-03-16T03:23:47.473Z,6.40
2023-03-16T03:26:35.427Z,5.90
2023-03-16T03:29:25.218Z,5.20
2023-03-16T03:32:13.953Z,5.00
2023-03-16T03:35:01.510Z,5.30
2023-03-16T03:37:49.757Z,5.10
2023-03-16T03:40:39.547Z,5.00
2023-03-16T03:43:27.786Z,4.30
2023-03-16T03:46:18.083Z,4.80
2023-03-16T03:49:05.893Z,4.90
2023-03-16T03:51:55.879Z,4.90
2023-03-16T03:54:46.568Z,5.30
2023-03-16T03:57:38.465Z,5.80
2023-03-16T04:00:30.019Z,4.90
2023-03-16T04:03:19.226Z,4.70
2023-03-16T04:06:08.428Z,4.90
2023-03-16T04:08:56.318Z,6.90
2023-03-16T04:11:50.428Z,5.40
2023-03-16T04:14:39.992Z,5.20
2023-03-16T04:17:29.672Z,4.80
2023-03-16T04:20:20.282Z,7.40
2023-03-16T04:23:09.335Z,4.90
2023-03-16T04:26:01.443Z,4.90
2023-03-16T04:28:50.257Z,4.90
2023-03-16T04:31:45.636Z,4.80
2023-03-16T04:34:33.896Z,4.90
2023-03-16T04:37:27.131Z,4.90
2023-03-16T04:40:17.717Z,4.80
2023-03-16T04:43:10.972Z,4.70
2023-03-16T04:45:58.876Z,4.70
2023-03-16T04:48:51.621Z,4.80
2023-03-16T04:51:40.936Z,4.70
2023-03-16T04:54:31.516Z,4.90
2023-03-16T04:57:21.854Z,4.60
2023-03-16T05:00:18.911Z,5.00
2023-03-16T05:03:17.387Z,3.80
2023-03-16T05:06:07.803Z,4.80
2023-03-16T05:08:56.835Z,4.90
2023-03-16T05:11:44.478Z,6.30
2023-03-16T05:14:36.226Z,4.80
2023-03-16T05:17:40.241Z,4.80
2023-03-16T05:20:28.459Z,4.70
2023-03-16T05:23:24.258Z,5.30
2023-03-16T05:26:20.460Z,4.80
2023-03-16T05:29:08.251Z,4.80
2023-03-16T05:31:58.490Z,6.00
2023-03-16T05:34:47.512Z,5.10
2023-03-16T05:37:38.472Z,7.10
2023-03-16T05:40:30.995Z,4.80
2023-03-16T05:43:30.942Z,4.90
2023-03-16T05:46:21.104Z,4.00
2023-03-16T05:49:13.127Z,7.00
2023-03-16T05:52:01.061Z,5.10
2023-03-16T05:54:50.466Z,5.20
2023-03-16T05:57:40.034Z,5.00
2023-03-16T06:00:27.947Z,4.90
2023-03-16T06:03:26.832Z,4.80
2023-03-16T06:06:16.572Z,4.80
2023-03-16T06:09:14.859Z,4.80
2023-03-16T06:12:04.376Z,4.70
2023-03-16T06:14:55.182Z,4.60
2023-03-16T06:17:42.856Z,4.80
2023-03-16T06:20:31.351Z,4.70
2023-03-16T06:23:22.290Z,4.90
2023-03-16T06:26:12.842Z,6.60
2023-03-16T06:29:03.817Z,4.90
2023-03-16T06:31:55.990Z,5.20
2023-03-16T06:34:47.276Z,5.00
2023-03-16T06:37:35.488Z,5.00
2023-03-16T06:40:32.316Z,6.90
2023-03-16T06:43:20.110Z,5.10
2023-03-16T06:46:08.333Z,6.70
2023-03-16T06:48:57.908Z,5.10
2023-03-16T06:51:49.082Z,5.10
2023-03-16T06:54:47.567Z,5.20
2023-03-16T06:57:36.714Z,5.30
2023-03-16T07:00:25.113Z,5.30
2023-03-16T07:03:13.146Z,7.50
2023-03-16T07:06:12.436Z,5.50
2023-03-16T07:09:03.996Z,7.10
2023-03-16T07:11:53.261Z,5.90
2023-03-16T07:14:42.180Z,5.70
2023-03-16T07:17:33.373Z,5.70
2023-03-16T07:20:30.693Z,5.80
2023-03-16T07:23:21.943Z,5.90
2023-03-16T07:26:12.322Z,6.00
2023-03-16T07:29:10.178Z,6.00
2023-03-16T07:32:07.648Z,7.60
2023-03-16T07:35:02.432Z,6.20
2023-03-16T07:37:55.130Z,6.40
2023-03-16T07:40:48.801Z,8.10
2023-03-16T07:43:41.911Z,6.50
2023-03-16T07:46:30.924Z,6.50
2023-03-16T07:49:18.591Z,8.40
2023-03-16T07:52:08.522Z,6.40
2023-03-16T07:55:01.963Z,6.10
2023-03-16T07:57:51.573Z,6.30
2023-03-16T08:00:49.420Z,6.30
2023-03-16T08:03:37.248Z,7.00
2023-03-16T08:06:26.088Z,5.80
2023-03-16T08:09:17.129Z,7.00
2023-03-16T08:12:06.194Z,7.50
2023-03-16T08:14:58.108Z,7.90
2023-03-16T08:17:49.295Z,8.00
2023-03-16T08:20:44.828Z,8.20
2023-03-16T08:23:33.966Z,8.60
2023-03-16T08:26:22.582Z,8.50
2023-03-16T08:29:15.468Z,9.70
2023-03-16T08:32:07.888Z,8.80
2023-03-16T08:35:01.994Z,8.30
2023-03-16T08:37:49.842Z,8.50
2023-03-16T08:40:37.481Z,8.50
2023-03-16T08:43:26.985Z,10.60
2023-03-16T08:46:15.720Z,8.40
2023-03-16T08:49:13.817Z,8.50
2023-03-16T08:52:03.669Z,8.60
2023-03-16T08:55:02.403Z,8.70
2023-03-16T08:57:51.324Z,8.80
2023-03-16T09:00:39.823Z,8.90
2023-03-16T09:03:27.446Z,9.00
2023-03-16T09:06:25.487Z,9.20
2023-03-16T09:09:15.651Z,9.40
2023-03-16T09:12:04.707Z,9.50
2023-03-16T09:14:58.110Z,11.40
2023-03-16T09:17:46.498Z,10.40
2023-03-16T09:20:38.087Z,10.00
2023-03-16T09:23:28.400Z,10.30
2023-03-16T09:26:16.573Z,10.40
2023-03-16T09:29:07.029Z,10.50
2023-03-16T09:31:55.537Z,12.20
2023-03-16T09:34:43.329Z,10.90
2023-03-16T09:37:44.476Z,10.90
2023-03-16T09:40:36.399Z,11.00
2023-03-16T09:43:34.681Z,10.90
2023-03-16T09:46:27.483Z,10.80
2023-03-16T09:49:21.154Z,10.80
2023-03-16T09:52:13.946Z,10.70
2023-03-16T09:55:06.608Z,10.90
2023-03-16T09:57:56.457Z,10.90
2023-03-16T10:00:53.220Z,10.90
2023-03-16T10:03:57.609Z,11.10
2023-03-16T10:06:48.543Z,11.10
2023-03-16T10:09:49.311Z,11.10
2023-03-16T10:12:43.387Z,11.10
2023-03-16T10:15:38.198Z,11.30
2023-03-16T10:18:28.031Z,11.30
2023-03-16T10:21:18.519Z,11.10
2023-03-16T10:24:15.520Z,11.10
2023-03-16T10:27:06.392Z,10.70
2023-03-16T10:29:55.267Z,11.40
2023-03-16T10:32:44.109Z,11.40
2023-03-16T10:35:36.254Z,11.60
2023-03-16T10:38:28.635Z,11.50
2023-03-16T10:41:25.969Z,11.70
2023-03-16T10:44:14.928Z,10.10
2023-03-16T10:47:03.681Z,12.30
2023-03-16T10:49:53.508Z,12.50
2023-03-16T10:52:47.160Z,14.20
2023-03-16T10:55:43.829Z,12.90
2023-03-16T10:58:32.599Z,12.80
2023-03-16T11:01:22.610Z,13.20
2023-03-16T11:04:14.283Z,13.90
2023-03-16T11:07:03.526Z,13.20
2023-03-16T11:09:52.847Z,13.40
2023-03-16T11:12:40.721Z,13.60
2023-03-16T11:15:29.722Z,13.90
2023-03-16T11:18:29.767Z,13.90
2023-03-16T11:21:28.992Z,13.90
2023-03-16T11:24:21.421Z,14.00
2023-03-16T11:27:15.707Z,13.80
2023-03-16T11:30:18.925Z,13.50
2023-03-16T11:33:14.261Z,13.60
2023-03-16T11:36:10.111Z,13.60
2023-03-16T11:39:13.002Z,13.60
2023-03-16T11:42:20.037Z,13.60
2023-03-16T11:45:19.943Z,15.20
2023-03-16T11:48:46.001Z,12.20
2023-03-16T11:51:37.841Z,14.10
2023-03-16T11:54:34.242Z,14.30
2023-03-16T11:57:30.890Z,14.40
2023-03-16T12:00:29.698Z,14.50
2023-03-16T12:03:32.412Z,14.80
2023-03-16T12:06:27.680Z,14.60
2023-03-16T12:09:34.014Z,14.60
2023-03-16T12:12:34.451Z,14.50
2023-03-16T12:15:31.835Z,14.60
2023-03-16T12:18:21.526Z,14.90
2023-03-16T12:21:14.631Z,15.10
2023-03-16T12:24:03.834Z,17.40
2023-03-16T12:26:54.817Z,16.40
2023-03-16T12:29:47.722Z,15.90
2023-03-16T12:32:40.449Z,15.60
2023-03-16T12:35:34.234Z,15.70
2023-03-16T12:38:35.597Z,15.40
2023-03-16T12:41:28.750Z,15.50
2023-03-16T12:44:19.301Z,15.60
2023-03-16T12:47:11.008Z,15.40
2023-03-16T12:50:07.807Z,15.60
2023-03-16T12:52:56.785Z,15.90
2023-03-16T12:55:47.091Z,16.10
2023-03-16T12:58:34.843Z,16.80
2023-03-16T13:01:28.437Z,19.30
2023-03-16T13:04:19.443Z,16.60
2023-03-16T13:07:09.347Z,16.30
2023-03-16T13:10:00.842Z,16.50
2023-03-16T13:12:48.643Z,15.70
2023-03-16T13:15:37.109Z,16.40
2023-03-16T13:18:28.352Z,17.80
2023-03-16T13:21:19.658Z,16.50
2023-03-16T13:24:27.156Z,16.50
2023-03-16T13:27:21.211Z,16.70
2023-03-16T13:30:20.098Z,16.40
2023-03-16T13:33:22.731Z,16.20
2023-03-16T13:36:12.900Z,16.10
2023-03-16T13:39:08.141Z,18.70
2023-03-16T13:41:57.461Z,16.50
2023-03-16T13:44:47.318Z,16.50
2023-03-16T13:47:34.797Z,15.60
2023-03-16T13:50:22.178Z,17.00
2023-03-16T13:53:14.799Z,17.90
2023-03-16T13:56:04.497Z,17.50
2023-03-16T13:58:54.635Z,17.60
2023-03-16T14:01:46.415Z,18.80
2023-03-16T14:04:36.515Z,18.50
2023-03-16T14:07:28.860Z,18.20
2023-03-16T14:10:17.784Z,20.00
2023-03-16T14:13:14.382Z,18.40
2023-03-16T14:16:02.938Z,18.00
2023-03-16T14:18:53.195Z,18.70
2023-03-16T14:21:45.745Z,18.90
2023-03-16T14:24:35.114Z,19.10
2023-03-16T14:27:24.608Z,19.30
2023-03-16T14:30:20.297Z,19.10
2023-03-16T14:33:25.098Z,18.90
2023-03-16T14:36:14.972Z,19.10
2023-03-16T14:39:11.563Z,19.00
2023-03-16T14:41:59.807Z,19.20
2023-03-16T14:44:50.694Z,20.80
2023-03-16T14:47:43.290Z,18.40
2023-03-16T14:50:37.519Z,17.30
2023-03-16T14:53:28.554Z,15.20
2023-03-16T14:56:16.089Z,16.70
2023-03-16T14:59:03.503Z,16.70
2023-03-16T15:01:54.962Z,16.80
2023-03-16T15:04:44.115Z,17.20
2023-03-16T15:07:33.093Z,18.20
2023-03-16T15:10:24.011Z,17.70
2023-03-16T15:13:34.733Z,18.10
2023-03-16T15:16:25.775Z,18.10
2023-03-16T15:19:15.423Z,20.40
2023-03-16T15:22:04.737Z,18.00
2023-03-16T15:24:58.092Z,17.60
2023-03-16T15:27:45.866Z,17.20
2023-03-16T15:30:33.321Z,17.10
2023-03-16T15:33:22.484Z,16.30
2023-03-16T15:36:16.957Z,16.00
2023-03-16T15:39:08.290Z,15.70
2023-03-16T15:41:58.980Z,15.50
2023-03-16T15:44:48.607Z,15.20
2023-03-16T15:47:36.611Z,15.00
2023-03-16T15:50:26.105Z,15.00
2023-03-16T15:53:29.685Z,15.00
2023-03-16T15:56:22.318Z,15.10
2023-03-16T15:59:16.524Z,14.80
2023-03-16T16:02:04.572Z,14.70
2023-03-16T16:04:53.242Z,14.40
2023-03-16T16:07:43.611Z,14.30
2023-03-16T16:10:34.338Z,14.50
2023-03-16T16:13:26.736Z,14.00
2023-03-16T16:16:18.451Z,14.20
2023-03-16T16:19:06.117Z,14.70
2023-03-16T16:21:54.732Z,14.90
2023-03-16T16:24:42.359Z,14.80
2023-03-16T16:27:31.146Z,16.80
2023-03-16T16:30:22.910Z,16.70
2023-03-16T16:33:27.516Z,15.20
2023-03-16T16:36:17.697Z,16.30
2023-03-16T16:39:07.666Z,15.20
2023-03-16T16:41:56.727Z,13.80
2023-03-16T16:44:47.487Z,15.00
2023-03-16T16:47:36.499Z,14.70
2023-03-16T16:50:27.919Z,14.50
2023-03-16T16:53:20.156Z,14.00
2023-03-16T16:56:12.894Z,13.50
2023-03-16T16:59:03.489Z,13.00
2023-03-16T17:01:52.242Z,12.60
2023-03-16T17:04:44.209Z,12.90
2023-03-16T17:07:32.404Z,12.20
2023-03-16T17:10:21.494Z,11.70
2023-03-16T17:13:16.824Z,11.80
2023-03-16T17:16:07.487Z,11.30
2023-03-16T17:18:55.375Z,11.10
2023-03-16T17:21:45.861Z,11.00
2023-03-16T17:24:34.438Z,11.20
2023-03-16T17:27:27.294Z,10.70
2023-03-16T17:30:22.345Z,11.20
2023-03-16T17:33:13.701Z,10.40
2023-03-16T17:36:02.815Z,10.30
2023-03-16T17:38:53.886Z,10.10
2023-03-16T17:41:41.560Z,10.40
2023-03-16T17:44:32.645Z,10.10
2023-03-16T17:47:21.587Z,10.10
2023-03-16T17:50:16.146Z,9.80
2023-03-16T17:53:04.395Z,10.00
2023-03-16T17:55:57.645Z,12.40
2023-03-16T17:58:46.229Z,9.50
2023-03-16T18:01:34.929Z,9.30
2023-03-16T18:04:23.122Z,9.20
2023-03-16T18:07:12.809Z,11.90
2023-03-16T18:10:00.540Z,9.10
2023-03-16T18:12:50.852Z,9.00
2023-03-16T18:15:39.611Z,8.90
2023-03-16T18:18:29.654Z,9.20
2023-03-16T18:21:19.330Z,8.80
2023-03-16T18:24:11.796Z,8.80
2023-03-16T18:27:00.052Z,8.50
2023-03-16T18:29:49.289Z,8.70
2023-03-16T18:32:37.480Z,8.80
2023-03-16T18:35:24.876Z,8.60
2023-03-16T18:38:27.147Z,8.60
2023-03-16T18:41:17.103Z,8.60
2023-03-16T18:44:08.144Z,9.50
2023-03-16T18:46:59.945Z,8.50
2023-03-16T18:49:49.550Z,10.30
2023-03-16T18:52:39.491Z,8.40
2023-03-16T18:55:29.034Z,9.30
2023-03-16T18:58:20.941Z,8.40
2023-03-16T19:01:14.034Z,8.40
2023-03-16T19:04:04.397Z,8.00
2023-03-16T19:06:53.696Z,8.60
2023-03-16T19:09:41.694Z,8.20
2023-03-16T19:12:29.421Z,8.10
2023-03-16T19:15:19.002Z,8.10
2023-03-16T19:18:09.215Z,8.00
2023-03-16T19:20:58.591Z,8.50
2023-03-16T19:23:47.960Z,8.00
2023-03-16T19:26:40.377Z,7.90
2023-03-16T19:29:32.613Z,7.90
2023-03-16T19:32:20.954Z,7.90
2023-03-16T19:35:15.764Z,7.90
2023-03-16T19:38:06.579Z,8.00
2023-03-16T19:40:58.804Z,7.70
2023-03-16T19:43:48.699Z,7.60
2023-03-16T19:46:37.052Z,6.00
2023-03-16T19:49:26.265Z,8.10
2023-03-16T19:52:14.974Z,8.10
2023-03-16T19:55:05.572Z,8.10
2023-03-16T19:58:00.190Z,8.20
2023-03-16T20:00:48.543Z,8.20
2023-03-16T20:03:38.843Z,8.20
2023-03-16T20:06:27.385Z,8.10
2023-03-16T20:09:14.924Z,8.20
2023-03-16T20:12:04.316Z,8.20
2023-03-16T20:14:52.721Z,8.20
2023-03-16T20:17:40.729Z,8.20
2023-03-16T20:20:29.911Z,9.00
2023-03-16T20:23:25.691Z,8.40
2023-03-16T20:26:23.253Z,8.30
2023-03-16T20:29:19.286Z,8.20
2023-03-16T20:32:11.377Z,8.20
2023-03-16T20:34:59.780Z,8.30
2023-03-16T20:37:52.720Z,8.40
2023-03-16T20:40:46.406Z,8.20
2023-03-16T20:43:44.381Z,8.30
2023-03-16T20:46:34.382Z,8.60
2023-03-16T20:49:32.620Z,8.30
2023-03-16T20:52:21.941Z,8.30
2023-03-16T20:55:11.855Z,8.30
2023-03-16T20:57:59.521Z,8.20
2023-03-16T21:00:52.073Z,9.00
2023-03-16T21:03:45.666Z,8.40
2023-03-16T21:06:34.715Z,8.40
2023-03-16T21:09:22.484Z,8.50
2023-03-16T21:12:15.480Z,10.90
2023-03-16T21:15:10.171Z,8.50
2023-03-16T21:18:01.555Z,7.90
2023-03-16T21:20:51.825Z,10.60
2023-03-16T21:23:40.359Z,9.50
2023-03-16T21:26:29.166Z,9.90
2023-03-16T21:29:21.471Z,8.70
2023-03-16T21:32:11.751Z,9.40
2023-03-16T21:34:59.542Z,8.10
2023-03-16T21:37:50.802Z,8.60
2023-03-16T21:40:38.255Z,8.70
2023-03-16T21:43:26.332Z,8.70
2023-03-16T21:46:16.222Z,9.60
2023-03-16T21:49:05.474Z,10.10
2023-03-16T21:51:53.862Z,8.80
2023-03-16T21:54:45.032Z,9.10
2023-03-16T21:57:34.416Z,7.20
2023-03-16T22:00:25.928Z,11.70
2023-03-16T22:03:23.120Z,8.90
2023-03-16T22:06:14.043Z,9.20
2023-03-16T22:09:04.845Z,8.80
2023-03-16T22:11:53.755Z,10.50
2023-03-16T22:14:42.052Z,8.80
2023-03-16T22:17:29.820Z,7.20
2023-03-16T22:20:18.843Z,9.30
2023-03-16T22:23:06.802Z,8.90
2023-03-16T22:25:57.903Z,9.90
2023-03-16T22:28:48.484Z,8.90
2023-03-16T22:31:38.897Z,10.00
2023-03-16T22:34:29.170Z,8.90
2023-03-16T22:37:18.961Z,8.90
2023-03-16T22:40:12.526Z,8.70
2023-03-16T22:43:03.570Z,9.50
2023-03-16T22:45:56.720Z,8.60
2023-03-16T22:48:45.050Z,9.40
2023-03-16T22:51:34.355Z,9.30
2023-03-16T22:54:22.880Z,9.10
2023-03-16T22:57:14.196Z,10.80
2023-03-16T23:00:07.544Z,8.90
2023-03-16T23:03:00.105Z,8.50
2023-03-16T23:05:51.827Z,9.10
2023-03-16T23:08:43.320Z,11.40
2023-03-16T23:11:33.028Z,8.90
2023-03-16T23:14:26.180Z,8.80
2023-03-16T23:17:17.126Z,8.90
2023-03-16T23:20:17.972Z,8.80
2023-03-16T23:23:06.440Z,8.90
2023-03-16T23:25:54.022Z,11.80
2023-03-16T23:28:41.919Z,8.90
2023-03-16T23:31:33.675Z,8.50
2023-03-16T23:34:22.746Z,8.90
2023-03-16T23:37:14.495Z,8.80
2023-03-16T23:40:05.899Z,8.30
2023-03-16T23:42:57.880Z,9.10
2023-03-16T23:45:47.557Z,8.50
2023-03-16T23:48:35.410Z,9.00
2023-03-16T23:51:24.664Z,8.80
2023-03-16T23:54:17.399Z,8.80
2023-03-16T23:57:05.442Z,8.80
2023-03-16T23:59:56.652Z,8.70
